createdAt,value
2018-08-12T00:01:00.981Z,76.33
2018-08-12T00:03:32.533Z,62.53
2018-08-12T00:06:04.067Z,51.70
2018-08-12T00:08:35.213Z,56.53
2018-08-12T00:11:06.646Z,68.13
2018-08-12T00:13:37.769Z,68.53
2018-08-12T00:16:09.512Z,82.80
2018-08-12T00:18:40.910Z,68.73
2018-08-12T00:21:12.217Z,67.20
2018-08-12T00:23:43.599Z,58.97
2018-08-12T00:26:15.516Z,61.90
2018-08-12T00:28:46.688Z,82.90
2018-08-12T00:31:17.838Z,59.17
2018-08-12T00:33:49.175Z,66.00
2018-08-12T00:36:20.457Z,60.33
2018-08-12T00:38:51.538Z,68.10
2018-08-12T00:41:22.894Z,62.67
2018-08-12T00:43:55.522Z,70.83
2018-08-12T00:46:26.852Z,69.10
2018-08-12T00:48:58.074Z,72.73
2018-08-12T00:51:29.718Z,66.03
2018-08-12T00:54:00.930Z,62.73
2018-08-12T00:56:33.227Z,88.47
2018-08-12T00:59:04.362Z,75.20
2018-08-12T01:01:35.805Z,75.37
2018-08-12T01:04:06.958Z,81.80
2018-08-12T01:06:38.354Z,56.07
2018-08-12T01:09:13.205Z,83.87
2018-08-12T01:11:45.269Z,82.50
2018-08-12T01:14:16.453Z,82.17
2018-08-12T01:16:48.265Z,58.43
2018-08-12T01:19:19.397Z,73.77
2018-08-12T01:21:50.613Z,74.37
2018-08-12T01:24:21.844Z,70.37
2018-08-12T01:26:53.253Z,77.67
2018-08-12T01:29:24.298Z,90.17
2018-08-12T01:31:55.779Z,89.43
2018-08-12T01:34:26.986Z,67.63
2018-08-12T01:36:58.340Z,68.27
2018-08-12T01:39:29.594Z,77.33
2018-08-12T01:42:01.180Z,82.63
2018-08-12T01:44:33.310Z,56.30
2018-08-12T01:47:04.853Z,69.50
2018-08-12T01:49:36.257Z,83.20
2018-08-12T01:52:07.670Z,71.83
2018-08-12T01:54:38.790Z,70.27
2018-08-12T01:57:10.271Z,69.13
2018-08-12T01:59:41.543Z,74.93
2018-08-12T02:02:12.953Z,71.93
2018-08-12T02:04:44.151Z,93.53
2018-08-12T02:07:15.539Z,68.73
2018-08-12T02:09:46.850Z,89.17
2018-08-12T02:12:18.669Z,77.33
2018-08-12T02:14:49.895Z,68.97
2018-08-12T02:17:21.224Z,78.37
2018-08-12T02:19:52.259Z,89.37
2018-08-12T02:22:23.605Z,74.03
2018-08-12T02:24:54.744Z,88.50
2018-08-12T02:27:26.030Z,85.63
2018-08-12T02:29:57.397Z,86.67
2018-08-12T02:32:28.734Z,105.33
2018-08-12T02:34:59.855Z,92.00
2018-08-12T02:37:31.025Z,93.73
2018-08-12T02:40:02.037Z,97.70
2018-08-12T02:42:33.403Z,80.23
2018-08-12T02:45:09.512Z,87.53
2018-08-12T02:47:40.974Z,94.20
2018-08-12T02:50:12.043Z,103.37
2018-08-12T02:52:43.240Z,114.10
2018-08-12T02:55:14.474Z,88.67
2018-08-12T02:57:45.973Z,96.90
2018-08-12T03:00:17.222Z,92.33
2018-08-12T03:02:48.891Z,110.00
2018-08-12T03:05:19.922Z,96.37
2018-08-12T03:07:51.596Z,92.37
2018-08-12T03:10:22.642Z,90.83
2018-08-12T03:12:54.146Z,99.47
2018-08-12T03:15:25.259Z,112.80
2018-08-12T03:17:56.639Z,107.13
2018-08-12T03:20:27.938Z,122.30
2018-08-12T03:22:59.717Z,127.40
2018-08-12T03:25:30.930Z,127.77
2018-08-12T03:28:02.545Z,113.43
2018-08-12T03:30:33.674Z,108.57
2018-08-12T03:33:05.018Z,101.13
2018-08-12T03:35:36.133Z,128.60
2018-08-12T03:38:07.765Z,111.57
2018-08-12T03:40:38.733Z,114.60
2018-08-12T03:43:10.066Z,103.30
2018-08-12T03:45:41.947Z,96.43
2018-08-12T03:48:13.522Z,102.83
2018-08-12T03:50:44.773Z,108.40
2018-08-12T03:53:16.213Z,118.63
2018-08-12T03:55:47.538Z,109.87
2018-08-12T03:58:18.982Z,126.50
2018-08-12T04:00:50.233Z,136.60
2018-08-12T04:03:21.529Z,117.57
2018-08-12T04:05:52.735Z,94.20
2018-08-12T04:08:24.022Z,109.90
2018-08-12T04:10:55.227Z,104.00
2018-08-12T04:13:26.634Z,116.43
2018-08-12T04:15:57.813Z,105.83
2018-08-12T04:18:29.278Z,99.87
2018-08-12T04:21:00.353Z,100.70
2018-08-12T04:23:31.905Z,102.93
2018-08-12T04:26:03.217Z,103.33
2018-08-12T04:28:34.737Z,117.23
2018-08-12T04:31:06.030Z,87.97
2018-08-12T04:33:37.323Z,112.77
2018-08-12T04:36:08.707Z,87.47
2018-08-12T04:38:39.801Z,109.73
2018-08-12T04:41:11.041Z,96.53
2018-08-12T04:43:42.535Z,115.80
2018-08-12T04:46:15.357Z,99.53
2018-08-12T04:48:46.894Z,91.37
2018-08-12T04:51:17.974Z,94.00
2018-08-12T04:53:49.342Z,91.53
2018-08-12T04:56:20.754Z,100.97
2018-08-12T04:58:52.098Z,93.43
2018-08-12T05:01:23.180Z,114.03
2018-08-12T05:03:54.482Z,92.80
2018-08-12T05:06:25.654Z,102.50
2018-08-12T05:08:56.851Z,97.17
2018-08-12T05:11:28.335Z,73.47
2018-08-12T05:13:59.720Z,85.87
2018-08-12T05:16:30.746Z,90.63
2018-08-12T05:19:02.765Z,82.90
2018-08-12T05:21:33.866Z,89.00
2018-08-12T05:24:05.576Z,92.57
2018-08-12T05:26:36.950Z,93.33
2018-08-12T05:29:08.128Z,93.43
2018-08-12T05:31:39.249Z,76.23
2018-08-12T05:34:10.592Z,83.30
2018-08-12T05:36:41.568Z,79.10
2018-08-12T05:39:14.511Z,72.27
2018-08-12T05:41:45.657Z,87.57
2018-08-12T05:44:17.028Z,72.80
2018-08-12T05:46:49.150Z,68.77
2018-08-12T05:49:20.395Z,72.27
2018-08-12T05:51:51.724Z,77.57
2018-08-12T05:54:23.663Z,61.40
2018-08-12T05:56:54.898Z,66.90
2018-08-12T05:59:26.219Z,66.73
2018-08-12T06:01:57.397Z,73.15
2018-08-12T06:04:28.701Z,74.15
2018-08-12T06:06:59.890Z,69.62
2018-08-12T06:09:31.433Z,65.42
2018-08-12T06:12:02.599Z,70.25
2018-08-12T06:14:34.002Z,73.42
2018-08-12T06:17:05.115Z,66.00
2018-08-12T06:19:36.476Z,58.85
2018-08-12T06:22:07.882Z,54.18
2018-08-12T06:24:39.590Z,54.90
2018-08-12T06:27:10.837Z,57.40
2018-08-12T06:29:42.481Z,49.57
2018-08-12T06:32:13.618Z,55.75
2018-08-12T06:34:45.010Z,62.63
2018-08-12T06:37:16.230Z,66.35
2018-08-12T06:39:47.594Z,60.80
2018-08-12T06:42:18.793Z,53.35
2018-08-12T06:44:50.397Z,55.63
2018-08-12T06:47:23.350Z,57.30
2018-08-12T06:49:54.635Z,53.65
2018-08-12T06:52:25.610Z,52.55
2018-08-12T06:54:57.090Z,66.70
2018-08-12T06:57:28.147Z,58.48
2018-08-12T06:59:59.519Z,52.75
2018-08-12T07:02:30.683Z,46.95
2018-08-12T07:05:02.323Z,56.60
2018-08-12T07:07:33.503Z,64.77
2018-08-12T07:10:05.162Z,52.67
2018-08-12T07:12:36.332Z,65.57
2018-08-12T07:15:10.766Z,51.95
2018-08-12T07:17:43.494Z,62.67
2018-08-12T07:20:15.461Z,49.23
2018-08-12T07:22:46.581Z,47.43
2018-08-12T07:25:18.061Z,56.88
2018-08-12T07:27:49.473Z,51.20
2018-08-12T07:30:21.222Z,72.75
2018-08-12T07:32:52.496Z,46.30
2018-08-12T07:35:23.761Z,53.80
2018-08-12T07:37:54.822Z,62.70
2018-08-12T07:40:26.100Z,55.17
2018-08-12T07:42:57.509Z,59.60
2018-08-12T07:45:28.862Z,52.00
2018-08-12T07:48:01.257Z,48.63
2018-08-12T07:50:32.617Z,57.55
2018-08-12T07:53:03.887Z,52.63
2018-08-12T07:55:35.419Z,60.85
2018-08-12T07:58:06.593Z,55.33
2018-08-12T08:00:38.097Z,61.92
2018-08-12T08:03:09.518Z,55.25
2018-08-12T08:05:40.688Z,55.43
2018-08-12T08:08:11.986Z,58.38
2018-08-12T08:10:43.552Z,52.50
2018-08-12T08:13:14.788Z,47.43
2018-08-12T08:15:46.338Z,51.05
2018-08-12T08:18:17.435Z,61.90
2018-08-12T08:20:48.834Z,57.85
2018-08-12T08:23:19.736Z,60.13
2018-08-12T08:25:50.960Z,60.97
2018-08-12T08:28:22.128Z,51.63
2018-08-12T08:30:53.433Z,56.47
2018-08-12T08:33:24.434Z,59.50
2018-08-12T08:35:56.638Z,67.43
2018-08-12T08:38:27.684Z,60.17
2018-08-12T08:40:58.818Z,60.13
2018-08-12T08:43:29.920Z,63.77
2018-08-12T08:46:01.135Z,51.80
2018-08-12T08:48:33.869Z,51.57
2018-08-12T08:51:05.128Z,60.80
2018-08-12T08:53:36.159Z,52.07
2018-08-12T08:56:07.525Z,59.33
2018-08-12T08:58:38.872Z,60.40
2018-08-12T09:01:10.082Z,62.47
2018-08-12T09:03:41.150Z,62.03
2018-08-12T09:06:12.381Z,51.00
2018-08-12T09:08:43.753Z,52.80
2018-08-12T09:11:14.842Z,50.60
2018-08-12T09:13:45.873Z,65.60
2018-08-12T09:16:17.382Z,55.47
2018-08-12T09:18:48.307Z,64.63
2018-08-12T09:21:19.478Z,59.60
2018-08-12T09:23:50.410Z,56.30
2018-08-12T09:26:21.723Z,57.27
2018-08-12T09:28:52.688Z,69.50
2018-08-12T09:31:24.039Z,53.47
2018-08-12T09:33:55.306Z,58.63
2018-08-12T09:36:26.484Z,56.43
2018-08-12T09:38:57.673Z,58.60
2018-08-12T09:41:29.206Z,55.20
2018-08-12T09:44:00.287Z,52.67
2018-08-12T09:46:31.685Z,73.43
2018-08-12T09:49:04.204Z,58.73
2018-08-12T09:51:35.499Z,63.87
2018-08-12T09:54:06.496Z,54.60
2018-08-12T09:56:37.788Z,79.90
2018-08-12T09:59:09.135Z,49.33
2018-08-12T10:01:40.370Z,53.33
2018-08-12T10:04:11.381Z,62.27
2018-08-12T10:06:42.765Z,66.13
2018-08-12T10:09:13.734Z,58.40
2018-08-12T10:11:45.133Z,55.30
2018-08-12T10:14:16.138Z,60.70
2018-08-12T10:16:47.638Z,58.77
2018-08-12T10:19:18.949Z,83.10
2018-08-12T10:21:50.426Z,66.67
2018-08-12T10:24:21.436Z,78.37
2018-08-12T10:26:52.649Z,48.90
2018-08-12T10:29:23.836Z,56.90
2018-08-12T10:31:55.059Z,66.00
2018-08-12T10:34:25.975Z,58.57
2018-08-12T10:36:57.244Z,55.13
2018-08-12T10:39:28.205Z,61.60
2018-08-12T10:42:00.165Z,59.30
2018-08-12T10:44:31.382Z,62.30
2018-08-12T10:47:02.825Z,63.27
2018-08-12T10:49:34.996Z,48.93
2018-08-12T10:52:06.546Z,53.53
2018-08-12T10:54:37.840Z,57.90
2018-08-12T10:57:09.161Z,55.57
2018-08-12T10:59:40.509Z,63.03
2018-08-12T11:02:12.461Z,44.10
2018-08-12T11:04:44.032Z,56.90
2018-08-12T11:07:15.414Z,63.77
2018-08-12T11:09:46.816Z,52.40
2018-08-12T11:12:18.088Z,47.10
2018-08-12T11:14:49.360Z,62.57
2018-08-12T11:17:20.672Z,61.27
2018-08-12T11:19:51.670Z,51.53
2018-08-12T11:22:23.133Z,55.27
2018-08-12T11:24:54.215Z,42.90
2018-08-12T11:27:25.610Z,53.10
2018-08-12T11:29:56.767Z,58.27
2018-08-12T11:32:28.402Z,55.87
2018-08-12T11:34:59.917Z,69.73
2018-08-12T11:37:31.812Z,47.50
2018-08-12T11:40:02.886Z,56.07
2018-08-12T11:42:34.290Z,72.40
2018-08-12T11:45:06.703Z,57.10
2018-08-12T11:47:37.985Z,54.23
2018-08-12T11:50:10.576Z,64.50
2018-08-12T11:52:42.781Z,57.20
2018-08-12T11:55:14.824Z,55.20
2018-08-12T11:57:46.175Z,50.47
2018-08-12T12:00:20.241Z,59.93
2018-08-12T12:02:52.902Z,56.23
2018-08-12T12:05:23.942Z,56.67
2018-08-12T12:07:55.316Z,52.00
2018-08-12T12:10:26.482Z,52.50
2018-08-12T12:12:58.424Z,51.63
2018-08-12T12:15:29.733Z,53.57
2018-08-12T12:18:05.565Z,60.73
2018-08-12T12:20:36.997Z,51.97
2018-08-12T12:23:08.477Z,53.70
2018-08-12T12:25:39.942Z,53.73
2018-08-12T12:28:11.830Z,50.90
2018-08-12T12:30:43.277Z,44.10
2018-08-12T12:33:19.133Z,50.87
2018-08-12T12:35:50.370Z,51.13
2018-08-12T12:38:21.682Z,48.80
2018-08-12T12:40:52.813Z,57.53
2018-08-12T12:43:24.262Z,39.33
2018-08-12T12:45:56.744Z,39.43
2018-08-12T12:48:28.310Z,36.20
2018-08-12T12:50:59.798Z,36.90
2018-08-12T12:53:31.400Z,45.27
2018-08-12T12:56:02.406Z,42.17
2018-08-12T12:58:33.861Z,40.43
2018-08-12T13:01:05.158Z,68.33
2018-08-12T13:03:36.805Z,39.47
2018-08-12T13:06:08.111Z,41.00
2018-08-12T13:08:39.612Z,46.50
2018-08-12T13:11:10.999Z,39.07
2018-08-12T13:13:42.449Z,30.23
2018-08-12T13:16:13.602Z,34.70
2018-08-12T13:18:44.912Z,35.23
2018-08-12T13:21:16.142Z,53.33
2018-08-12T13:23:47.513Z,38.80
2018-08-12T13:26:18.629Z,48.60
2018-08-12T13:28:50.200Z,29.00
2018-08-12T13:31:21.414Z,28.40
2018-08-12T13:33:53.198Z,35.33
2018-08-12T13:36:24.460Z,30.70
2018-08-12T13:38:55.730Z,33.33
2018-08-12T13:41:27.103Z,28.80
2018-08-12T13:43:58.341Z,36.80
2018-08-12T13:46:29.694Z,34.47
2018-08-12T13:49:01.552Z,39.60
2018-08-12T13:51:33.872Z,38.57
2018-08-12T13:54:05.670Z,38.63
2018-08-12T13:56:36.813Z,33.33
2018-08-12T13:59:08.321Z,36.40
2018-08-12T14:01:39.600Z,36.57
2018-08-12T14:04:11.003Z,38.00
2018-08-12T14:06:42.268Z,37.60
2018-08-12T14:09:13.882Z,40.00
2018-08-12T14:11:44.975Z,35.70
2018-08-12T14:14:16.658Z,40.70
2018-08-12T14:16:47.766Z,43.90
2018-08-12T14:19:19.094Z,33.17
2018-08-12T14:21:50.278Z,37.40
2018-08-12T14:24:21.678Z,44.83
2018-08-12T14:26:52.751Z,41.53
2018-08-12T14:29:24.248Z,40.90
2018-08-12T14:31:55.373Z,45.30
2018-08-12T14:34:26.610Z,44.83
2018-08-12T14:36:58.018Z,46.57
2018-08-12T14:39:29.209Z,49.83
2018-08-12T14:42:00.523Z,38.93
2018-08-12T14:44:32.075Z,45.70
2018-08-12T14:47:03.145Z,35.37
2018-08-12T14:49:34.626Z,36.43
2018-08-12T14:52:06.971Z,43.87
2018-08-12T14:54:38.475Z,42.17
2018-08-12T14:57:09.837Z,42.27
2018-08-12T14:59:41.266Z,39.53
2018-08-12T15:02:12.398Z,45.50
2018-08-12T15:04:43.760Z,41.80
2018-08-12T15:07:15.011Z,44.43
2018-08-12T15:09:46.570Z,47.93
2018-08-12T15:12:17.658Z,37.30
2018-08-12T15:14:48.946Z,46.93
2018-08-12T15:17:20.233Z,54.13
2018-08-12T15:19:51.939Z,53.17
2018-08-12T15:22:23.230Z,48.67
2018-08-12T15:24:54.461Z,43.80
2018-08-12T15:27:25.837Z,49.07
2018-08-12T15:29:57.138Z,51.47
2018-08-12T15:32:28.430Z,47.73
2018-08-12T15:34:59.660Z,38.87
2018-08-12T15:37:30.962Z,39.30
2018-08-12T15:40:02.351Z,61.63
2018-08-12T15:42:33.721Z,37.20
2018-08-12T15:45:05.569Z,38.17
2018-08-12T15:47:36.762Z,38.17
2018-08-12T15:50:09.546Z,38.07
2018-08-12T15:52:42.949Z,52.20
2018-08-12T15:55:14.406Z,44.93
2018-08-12T15:57:45.529Z,44.77
2018-08-12T16:00:23.638Z,44.10
2018-08-12T16:02:55.074Z,41.83
2018-08-12T16:05:26.385Z,50.43
2018-08-12T16:07:57.675Z,51.17
2018-08-12T16:10:28.908Z,38.13
2018-08-12T16:13:02.851Z,43.40
2018-08-12T16:15:34.092Z,38.90
2018-08-12T16:18:05.186Z,39.53
2018-08-12T16:20:36.539Z,39.80
2018-08-12T16:23:07.875Z,37.87
2018-08-12T16:25:39.240Z,49.17
2018-08-12T16:28:10.561Z,47.73
2018-08-12T16:30:41.966Z,39.33
2018-08-12T16:33:13.362Z,38.97
2018-08-12T16:35:44.539Z,45.07
2018-08-12T16:38:15.617Z,45.93
2018-08-12T16:40:47.016Z,46.70
2018-08-12T16:43:18.186Z,40.53
2018-08-12T16:45:49.402Z,42.37
2018-08-12T16:48:21.550Z,43.37
2018-08-12T16:50:52.873Z,45.73
2018-08-12T16:53:25.231Z,40.87
2018-08-12T16:55:56.476Z,44.23
2018-08-12T16:58:27.652Z,38.87
2018-08-12T17:00:58.889Z,45.50
2018-08-12T17:03:29.861Z,43.07
2018-08-12T17:06:01.246Z,39.77
2018-08-12T17:08:32.630Z,42.97
2018-08-12T17:11:03.930Z,42.70
2018-08-12T17:13:35.116Z,39.27
2018-08-12T17:16:06.357Z,40.67
2018-08-12T17:18:38.463Z,38.07
2018-08-12T17:21:10.313Z,40.60
2018-08-12T17:23:41.317Z,38.47
2018-08-12T17:26:12.910Z,38.03
2018-08-12T17:28:43.966Z,38.67
2018-08-12T17:31:15.315Z,43.07
2018-08-12T17:33:46.450Z,38.13
2018-08-12T17:36:17.698Z,43.50
2018-08-12T17:38:48.809Z,42.10
2018-08-12T17:41:20.582Z,49.97
2018-08-12T17:43:51.618Z,45.57
2018-08-12T17:46:23.247Z,47.07
2018-08-12T17:48:54.352Z,44.00
2018-08-12T17:51:25.656Z,49.23
2018-08-12T17:53:58.375Z,39.37
2018-08-12T17:56:30.146Z,43.53
2018-08-12T17:59:01.205Z,45.97
2018-08-12T18:01:32.550Z,48.30
2018-08-12T18:04:03.709Z,47.00
2018-08-12T18:06:35.101Z,48.53
2018-08-12T18:09:07.430Z,46.47
2018-08-12T18:11:38.842Z,42.03
2018-08-12T18:14:10.074Z,41.47
2018-08-12T18:16:41.414Z,38.67
2018-08-12T18:19:12.590Z,43.37
2018-08-12T18:21:43.998Z,42.00
2018-08-12T18:24:15.207Z,45.33
2018-08-12T18:26:46.355Z,39.23
2018-08-12T18:29:17.721Z,41.07
2018-08-12T18:31:49.130Z,50.50
2018-08-12T18:34:20.189Z,43.83
2018-08-12T18:36:51.457Z,55.73
2018-08-12T18:39:22.853Z,46.97
2018-08-12T18:41:54.210Z,41.17
2018-08-12T18:44:25.190Z,44.37
2018-08-12T18:46:56.726Z,42.57
2018-08-12T18:49:28.002Z,43.43
2018-08-12T18:51:59.339Z,54.10
2018-08-12T18:54:31.870Z,44.97
2018-08-12T18:57:03.633Z,58.57
2018-08-12T18:59:34.696Z,43.23
2018-08-12T19:02:05.990Z,39.60
2018-08-12T19:04:37.378Z,41.43
2018-08-12T19:07:08.699Z,46.07
2018-08-12T19:09:39.941Z,42.27
2018-08-12T19:12:11.573Z,41.33
2018-08-12T19:14:42.874Z,39.50
2018-08-12T19:17:14.387Z,39.03
2018-08-12T19:19:45.774Z,39.87
2018-08-12T19:22:17.118Z,38.77
2018-08-12T19:24:48.339Z,40.83
2018-08-12T19:27:19.554Z,40.47
2018-08-12T19:29:50.574Z,40.37
2018-08-12T19:32:21.765Z,41.90
2018-08-12T19:34:52.878Z,42.70
2018-08-12T19:37:24.256Z,40.27
2018-08-12T19:39:55.494Z,45.23
2018-08-12T19:42:26.678Z,44.10
2018-08-12T19:44:57.798Z,41.83
2018-08-12T19:47:29.344Z,44.27
2018-08-12T19:50:00.350Z,44.53
2018-08-12T19:52:31.818Z,46.87
2018-08-12T19:55:03.365Z,46.87
2018-08-12T19:57:34.533Z,44.73
2018-08-12T20:00:06.234Z,41.37
2018-08-12T20:02:37.658Z,43.03
2018-08-12T20:05:08.776Z,40.17
2018-08-12T20:07:40.115Z,39.73
2018-08-12T20:10:12.517Z,41.67
2018-08-12T20:12:43.812Z,38.83
2018-08-12T20:15:14.974Z,38.03
2018-08-12T20:17:46.176Z,39.10
2018-08-12T20:20:17.375Z,39.30
2018-08-12T20:22:48.708Z,38.57
2018-08-12T20:25:19.945Z,37.67
2018-08-12T20:27:51.154Z,37.87
2018-08-12T20:30:22.337Z,40.27
2018-08-12T20:32:53.764Z,38.83
2018-08-12T20:35:24.854Z,38.43
2018-08-12T20:37:56.428Z,38.50
2018-08-12T20:40:27.846Z,40.00
2018-08-12T20:42:59.133Z,37.93
2018-08-12T20:45:30.410Z,36.87
2018-08-12T20:48:02.063Z,36.37
2018-08-12T20:50:33.010Z,36.67
2018-08-12T20:53:04.717Z,35.77
2018-08-12T20:55:36.649Z,34.87
2018-08-12T20:58:08.106Z,36.63
2018-08-12T21:00:39.256Z,37.70
2018-08-12T21:03:11.458Z,38.13
2018-08-12T21:05:42.666Z,36.27
2018-08-12T21:08:13.911Z,36.73
2018-08-12T21:10:44.866Z,39.83
2018-08-12T21:13:16.073Z,38.10
2018-08-12T21:15:47.277Z,39.20
2018-08-12T21:18:18.559Z,37.13
2018-08-12T21:20:49.652Z,35.23
2018-08-12T21:23:22.406Z,36.03
2018-08-12T21:25:53.638Z,34.67
2018-08-12T21:28:24.832Z,35.30
2018-08-12T21:30:56.059Z,36.80
2018-08-12T21:33:27.533Z,34.83
2018-08-12T21:35:58.760Z,35.67
2018-08-12T21:38:30.049Z,36.47
2018-08-12T21:41:01.198Z,34.20
2018-08-12T21:43:32.532Z,35.50
2018-08-12T21:46:03.670Z,31.87
2018-08-12T21:48:34.842Z,31.90
2018-08-12T21:51:05.949Z,28.87
2018-08-12T21:53:37.187Z,26.90
2018-08-12T21:56:09.557Z,27.20
2018-08-12T21:58:41.158Z,29.70
2018-08-12T22:01:12.415Z,29.07
2018-08-12T22:03:43.699Z,29.73
2018-08-12T22:06:14.969Z,31.50
2018-08-12T22:08:46.203Z,34.43
2018-08-12T22:11:17.370Z,35.73
2018-08-12T22:13:48.982Z,31.87
2018-08-12T22:16:20.194Z,32.20
2018-08-12T22:18:51.773Z,34.97
2018-08-12T22:21:22.917Z,35.87
2018-08-12T22:23:54.316Z,35.33
2018-08-12T22:26:25.502Z,36.63
2018-08-12T22:28:56.949Z,36.80
2018-08-12T22:31:28.299Z,37.80
2018-08-12T22:34:00.149Z,37.87
2018-08-12T22:36:31.181Z,38.33
2018-08-12T22:39:02.350Z,38.97
2018-08-12T22:41:33.473Z,44.70
2018-08-12T22:44:05.082Z,49.20
2018-08-12T22:46:36.202Z,50.17
2018-08-12T22:49:07.907Z,50.17
2018-08-12T22:51:39.060Z,50.00
2018-08-12T22:54:10.534Z,50.00
2018-08-12T22:56:42.884Z,50.37
2018-08-12T22:59:14.355Z,51.10
2018-08-12T23:01:45.618Z,56.57
2018-08-12T23:04:16.948Z,49.53
2018-08-12T23:06:48.139Z,53.23
2018-08-12T23:09:19.550Z,55.73
2018-08-12T23:11:50.733Z,52.43
2018-08-12T23:14:22.242Z,51.73
2018-08-12T23:17:01.233Z,51.80
2018-08-12T23:19:32.480Z,51.00
2018-08-12T23:22:04.019Z,51.83
2018-08-12T23:24:35.416Z,54.90
2018-08-12T23:27:06.467Z,49.37
2018-08-12T23:29:37.753Z,52.40
2018-08-12T23:32:09.054Z,49.50
2018-08-12T23:34:40.569Z,51.33
2018-08-12T23:37:12.005Z,65.63
2018-08-12T23:39:43.534Z,54.23
2018-08-12T23:42:14.654Z,47.63
2018-08-12T23:44:45.940Z,47.00
2018-08-12T23:47:17.446Z,48.27
2018-08-12T23:49:48.837Z,49.17
2018-08-12T23:52:20.116Z,50.47
2018-08-12T23:54:51.890Z,50.53
2018-08-12T23:57:24.410Z,51.40
2018-08-12T23:59:55.609Z,48.27
